Radiosonde details



Informationen :

Serial : V3010294
Type : Vaisala RS41-SGP
Date of production : 24.07.2023
Frequency : 403.010MHz
Launchsite : Galeao
Nearest town : Silva Jardim, BR (14.8km)

Altitude (Max) : 26469m at 2026-09-03 12:46:12
Speed (Max) : 185km/h at altitude 13092m

Average speed : 77km/h
Average ascent rate : 6m/s
Average descent rate : -13m/s
Ascent rate (Max) : 11.9m/s
Descent rate (Max): -29.5m/s

First frame :
PU1XMG-16 at 2026-09-03 11:34:13 at altitude 277m (OG: 235m)
Last frame :
PU1XMG-16 at 2026-09-03 12:52:25 at altitude 22162m (OG: 22120m)

Flighttime : 1h18m12s
Ascent time : 1h11m59s
Descent time : 6m13s
Uptime : -
Killtimer : 8h24m

Distance (Straight line distance): 91km

Distance (Route):


Frames : 526


Measurement :

Temperature : 0°C
Humidity : 0%
Pressure : 0hPa


Vertical profile (SkewT) :


Elevation profile :



Receiving stations :


Receiver Frames First received Last received
PU1XMG-16 526 2026-09-03 11:34:13 2026-09-03 12:52:25

Share per receiver :



All frames :


Receiver Date Latitude Longitude Direction Speed Altitude Climb Temperature Humidity Pressure Voltage Killtimer Uptime BKT XDATA
PU1XMG-162026-09-03 12:52:25-22.51988-42.4181059°5km/h22162m-9.5m/s0°C0%0hPa0V08:24:0000:00:0000:00:00
PU1XMG-162026-09-03 12:52:09-22.52027-42.4185460°22km/h22320m-9.3m/s0°C0%0hPa0V08:24:0000:00:0000:00:00
PU1XMG-162026-09-03 12:52:03-22.52043-42.4187747°20km/h22367m-9.2m/s0°C0%0hPa0V00:00:0000:00:0000:00:00
PU1XMG-162026-09-03 12:51:57-22.52064-42.4189641°16km/h22424m-9.7m/s0°C0%0hPa0V00:00:0000:00:0000:00:00
PU1XMG-162026-09-03 12:51:51-22.52085-42.4191127°16km/h22481m-9.3m/s0°C0%0hPa0V00:00:0000:00:0000:00:00
PU1XMG-162026-09-03 12:51:43-22.52106-42.41909336°5km/h22557m-9.4m/s0°C0%0hPa0V00:00:0000:00:0000:00:00
PU1XMG-162026-09-03 12:50:03-22.52538-42.41858315°20km/h23584m-10.6m/s-56.3°C1.5%32.4hPa0V00:00:0000:00:0000:00:00
PU1XMG-162026-09-03 12:49:57-22.52558-42.41840318°15km/h23648m-11.1m/s-56.1°C1.4%32.1hPa0V00:00:0000:00:0000:00:00
PU1XMG-162026-09-03 12:49:43-22.52617-42.41799340°22km/h23798m-10.9m/s-56.5°C1.4%31.3hPa0V00:00:0000:00:0000:00:00
PU1XMG-162026-09-03 12:49:36-22.52642-42.41781325°13km/h23874m-11.1m/s-56.8°C1.5%31.0hPa0V00:00:0000:00:0000:00:00
PU1XMG-162026-09-03 12:49:28-22.52659-42.41762315°13km/h23962m-11.2m/s-56.5°C1.5%30.5hPa0V00:00:0000:00:0000:00:00
PU1XMG-162026-09-03 12:49:22-22.52671-42.4175720°5km/h24030m-11.4m/s-56.3°C1.4%30.2hPa0V00:00:0000:00:0000:00:00
PU1XMG-162026-09-03 12:49:17-22.52678-42.41753321°9km/h24096m-11.4m/s-55.9°C1.4%29.9hPa0V00:00:0000:00:0000:00:00
PU1XMG-162026-09-03 12:49:10-22.52692-42.41749350°9km/h24163m-11.1m/s-56.0°C1.5%29.6hPa0V00:00:0000:00:0000:00:00
PU1XMG-162026-09-03 12:49:05-22.52703-42.41747334°9km/h24218m-11.5m/s-55.8°C1.4%29.3hPa0V00:00:0000:00:0000:00:00
PU1XMG-162026-09-03 12:49:00-22.52716-42.41740350°9km/h24275m-12.1m/s-55.5°C1.4%29.1hPa0V00:00:0000:00:0000:00:00
PU1XMG-162026-09-03 12:48:54-22.52726-42.41734328°4km/h24345m-11.5m/s-55.6°C1.4%28.7hPa0V00:00:0000:00:0000:00:00
PU1XMG-162026-09-03 12:48:49-22.52727-42.41728265°9km/h24402m-12.1m/s-55.4°C1.4%28.5hPa0V00:00:0000:00:0000:00:00
PU1XMG-162026-09-03 12:48:42-22.52722-42.41706251°11km/h24497m-11.6m/s-54.8°C1.3%28.1hPa0V00:00:0000:00:0000:00:00
PU1XMG-162026-09-03 12:48:36-22.52718-42.41697236°5km/h24556m-12.4m/s-54.9°C1.3%27.8hPa0V00:00:0000:00:0000:00:00
PU1XMG-162026-09-03 12:48:31-22.52715-42.41690244°5km/h24617m-12.2m/s-54.9°C1.3%27.6hPa0V00:00:0000:00:0000:00:00
PU1XMG-162026-09-03 12:48:24-22.52710-42.41694129°13km/h24700m-11.8m/s-55.3°C1.3%27.2hPa0V00:00:0000:00:0000:00:00
PU1XMG-162026-09-03 12:48:19-22.52699-42.41710135°13km/h24761m-12.0m/s-55.3°C1.3%26.9hPa0V00:00:0000:00:0000:00:00
PU1XMG-162026-09-03 12:48:07-22.52665-42.41727167°13km/h24918m-12.4m/s-55.6°C1.3%26.3hPa0V00:00:0000:00:0000:00:00
PU1XMG-162026-09-03 12:47:48-22.52586-42.41700188°27km/h25152m-12.4m/s-56.5°C1.5%25.3hPa0V08:29:0000:00:0000:00:00
PU1XMG-162026-09-03 12:47:42-22.52545-42.41695181°26km/h25228m-12.8m/s-56.4°C1.5%25.0hPa0V08:29:0000:00:0000:00:00
PU1XMG-162026-09-03 12:47:17-22.52406-42.41757137°24km/h25551m-13.6m/s-54.0°C1.3%23.8hPa0V08:29:0000:00:0000:00:00
PU1XMG-162026-09-03 12:47:06-22.52377-42.41795162°15km/h25686m-13.7m/s-53.3°C1.3%23.2hPa0V08:29:0000:00:0000:00:00
PU1XMG-162026-09-03 12:47:00-22.52357-42.41808124°16km/h25768m-14.2m/s-53.0°C1.3%23.0hPa0V00:00:0000:00:0000:00:00
PU1XMG-162026-09-03 12:46:54-22.52347-42.4184293°22km/h25852m-14.3m/s-52.6°C1.2%22.7hPa0V00:00:0000:00:0000:00:00
PU1XMG-162026-09-03 12:46:47-22.52344-42.41869116°11km/h25952m-14.9m/s-52.4°C1.2%22.3hPa0V00:00:0000:00:0000:00:00
PU1XMG-162026-09-03 12:46:42-22.52335-42.41891105°18km/h26043m-15.6m/s-52.6°C1.2%22.0hPa0V00:00:0000:00:0000:00:00
PU1XMG-162026-09-03 12:46:29-22.52324-42.41951114°27km/h26231m-15.7m/s-52.2°C1.2%21.3hPa0V00:00:0000:00:0000:00:00
PU1XMG-162026-09-03 12:46:23-22.52306-42.41975203°7km/h26327m-16.0m/s-51.7°C1.2%21.0hPa0V00:00:0000:00:0000:00:00
PU1XMG-162026-09-03 12:46:18-22.52317-42.4197966°35km/h26430m-29.5m/s-51.1°C1.1%20.8hPa0V00:00:0000:00:0000:00:00
PU1XMG-162026-09-03 12:46:12-22.52340-42.4203270°33km/h26469m7.3m/s-51.1°C1.1%20.5hPa0V00:00:0000:00:0000:00:00
PU1XMG-162026-09-03 12:46:06-22.52345-42.42059100°11km/h26436m5.5m/s-51.0°C1.1%20.7hPa0V00:00:0000:00:0000:00:00
PU1XMG-162026-09-03 12:45:59-22.52363-42.4209467°27km/h26394m5.2m/s-51.2°C1.1%20.8hPa0V00:00:0000:00:0000:00:00
PU1XMG-162026-09-03 12:45:54-22.52366-42.42130129°22km/h26361m7.1m/s-51.7°C1.1%20.9hPa0V00:00:0000:00:0000:00:00
PU1XMG-162026-09-03 12:45:48-22.52347-42.42150120°9km/h26323m7.7m/s-52.0°C1.1%21.0hPa0V00:00:0000:00:0000:00:00
PU1XMG-162026-09-03 12:45:43-22.52349-42.4216789°22km/h26292m3.6m/s-52.1°C1.2%21.1hPa0V00:00:0000:00:0000:00:00
PU1XMG-162026-09-03 12:45:35-22.52329-42.42198141°13km/h26242m4.0m/s-52.1°C1.1%21.3hPa0V00:00:0000:00:0000:00:00
PU1XMG-162026-09-03 12:45:29-22.52324-42.42226100°24km/h26202m5.6m/s-52.1°C1.2%21.4hPa0V00:00:0000:00:0000:00:00
PU1XMG-162026-09-03 12:45:22-22.52313-42.42263123°18km/h26157m7.3m/s-52.3°C1.2%21.6hPa0V00:00:0000:00:0000:00:00
PU1XMG-162026-09-03 12:45:18-22.52309-42.4229482°24km/h26117m8.2m/s-52.5°C1.2%21.7hPa0V00:00:0000:00:0000:00:00
PU1XMG-162026-09-03 12:45:09-22.52306-42.42330157°16km/h26065m8.0m/s-52.6°C1.2%21.9hPa0V00:00:0000:00:0000:00:00
PU1XMG-162026-09-03 12:45:01-22.52290-42.4234977°16km/h26011m8.0m/s-52.3°C1.1%22.1hPa0V00:00:0000:00:0000:00:00
PU1XMG-162026-09-03 12:44:49-22.52283-42.4238386°7km/h25940m5.2m/s-52.6°C1.2%22.3hPa0V00:00:0000:00:0000:00:00
PU1XMG-162026-09-03 12:44:44-22.52290-42.4240871°22km/h25906m7.2m/s-52.5°C1.2%22.4hPa0V00:00:0000:00:0000:00:00
PU1XMG-162026-09-03 12:44:33-22.52282-42.4246791°16km/h25831m7.3m/s-52.7°C1.1%22.7hPa0V00:00:0000:00:0000:00:00
PU1XMG-162026-09-03 12:43:50-22.52163-42.42596127°27km/h25560m6.9m/s-53.7°C1.2%23.7hPa0V00:00:0000:00:0000:00:00
PU1XMG-162026-09-03 12:43:35-22.52090-42.42653138°20km/h25461m8.9m/s-54.4°C1.3%24.1hPa0V00:00:0000:00:0000:00:00
PU1XMG-162026-09-03 12:43:30-22.52073-42.42672150°20km/h25428m6.4m/s-54.5°C1.3%24.2hPa0V00:00:0000:00:0000:00:00
PU1XMG-162026-09-03 12:43:19-22.51997-42.42685161°20km/h25358m5.4m/s-55.7°C1.4%24.5hPa0V00:00:0000:00:0000:00:00
PU1XMG-162026-09-03 12:42:59-22.51870-42.42708188°37km/h25220m6.6m/s-56.0°C1.4%25.0hPa0V00:00:0000:00:0000:00:00
PU1XMG-162026-09-03 12:39:57-22.51617-42.42508312°9km/h24061m5.9m/s-55.2°C1.3%30.0hPa0V00:00:0000:00:0000:00:00
PU1XMG-162026-09-03 12:39:49-22.51624-42.424994km/h24009m3.8m/s-55.5°C1.3%30.3hPa0V00:00:0000:00:0000:00:00
PU1XMG-162026-09-03 12:39:40-22.51640-42.42492299°13km/h23953m6.8m/s-55.6°C1.4%30.5hPa0V00:00:0000:00:0000:00:00
PU1XMG-162026-09-03 12:39:33-22.51646-42.42474289°7km/h23909m5.5m/s-55.8°C1.3%30.8hPa0V00:00:0000:00:0000:00:00
PU1XMG-162026-09-03 12:39:27-22.51656-42.42462287°11km/h23872m5.8m/s-55.8°C1.4%30.9hPa0V00:00:0000:00:0000:00:00
PU1XMG-162026-09-03 12:39:21-22.51659-42.42445269°15km/h23835m5.1m/s-55.9°C1.4%31.1hPa0V00:00:0000:00:0000:00:00
PU1XMG-162026-09-03 12:39:15-22.51673-42.42419322°15km/h23791m7.9m/s-56.0°C1.5%31.3hPa0V00:00:0000:00:0000:00:00
PU1XMG-162026-09-03 12:39:09-22.51687-42.42408336°16km/h23751m5.3m/s-55.8°C1.4%31.5hPa0V00:00:0000:00:0000:00:00
PU1XMG-162026-09-03 12:39:02-22.51715-42.42386329°16km/h23708m5.7m/s-55.5°C1.4%31.8hPa0V00:00:0000:00:0000:00:00
PU1XMG-162026-09-03 12:38:50-22.51749-42.42349304°22km/h23641m5.7m/s-55.5°C1.4%32.1hPa0V00:00:0000:00:0000:00:00
PU1XMG-162026-09-03 12:38:43-22.51754-42.42323326°7km/h23599m5.7m/s-55.6°C1.4%32.3hPa0V00:00:0000:00:0000:00:00
PU1XMG-162026-09-03 12:38:38-22.51766-42.42311316°16km/h23567m6.4m/s-55.7°C1.4%32.5hPa0V00:00:0000:00:0000:00:00
PU1XMG-162026-09-03 12:38:32-22.51778-42.42278292°24km/h23529m5.2m/s-55.8°C1.5%32.7hPa0V00:00:0000:00:0000:00:00
PU1XMG-162026-09-03 12:38:26-22.51792-42.42240292°22km/h23492m4.9m/s-55.7°C1.4%32.9hPa0V00:00:0000:00:0000:00:00
PU1XMG-162026-09-03 12:38:15-22.51821-42.42193316°22km/h23424m6.3m/s-55.1°C1.4%33.2hPa0V00:00:0000:00:0000:00:00
PU1XMG-162026-09-03 12:38:10-22.51847-42.42167331°20km/h23384m5.0m/s-54.8°C1.3%33.4hPa0V00:00:0000:00:0000:00:00
PU1XMG-162026-09-03 12:32:18-22.52708-42.42926196°5km/h21227m4.1m/s-60.7°C1.8%47.2hPa0V00:00:0000:00:0000:00:00
PU1XMG-162026-09-03 12:32:00-22.52684-42.42927199°13km/h21122m7.5m/s-60.5°C1.8%48.0hPa0V00:00:0000:00:0000:00:00
PU1XMG-162026-09-03 12:31:48-22.52658-42.42916222°7km/h21044m5.3m/s-59.9°C1.7%48.6hPa0V00:00:0000:00:0000:00:00
PU1XMG-162026-09-03 12:31:35-22.52637-42.42894230°7km/h20963m5.9m/s-59.9°C1.6%49.3hPa0V00:00:0000:00:0000:00:00
PU1XMG-162026-09-03 12:31:26-22.52633-42.42889123°11km/h20907m5.0m/s-61.7°C1.8%49.7hPa0V00:00:0000:00:0000:00:00
PU1XMG-162026-09-03 12:31:16-22.52636-42.4291891°15km/h20843m3.9m/s-62.1°C1.9%50.2hPa0V00:00:0000:00:0000:00:00
PU1XMG-162026-09-03 12:31:01-22.52630-42.4297097°15km/h20753m4.8m/s-62.0°C2.0%51.0hPa0V00:00:0000:00:0000:00:00
PU1XMG-162026-09-03 12:30:55-22.52618-42.42981147°9km/h20717m4.5m/s-61.8°C1.9%51.2hPa0V00:00:0000:00:0000:00:00
PU1XMG-162026-09-03 12:30:48-22.52615-42.4299178°13km/h20682m3.6m/s-61.9°C2.0%51.5hPa0V00:00:0000:00:0000:00:00
PU1XMG-162026-09-03 12:30:41-22.52611-42.43003162°7km/h20633m7.3m/s-61.8°C1.9%51.9hPa0V00:00:0000:00:0000:00:00
PU1XMG-162026-09-03 12:30:36-22.52617-42.4300827°16km/h20599m9.1m/s-61.9°C1.9%52.2hPa0V00:00:0000:00:0000:00:00
PU1XMG-162026-09-03 12:30:31-22.52634-42.4301845°9km/h20567m4.7m/s-62.3°C1.9%52.5hPa0V00:00:0000:00:0000:00:00
PU1XMG-162026-09-03 12:30:25-22.52634-42.43020249°4km/h20528m3.2m/s-62.7°C1.9%52.9hPa0V00:00:0000:00:0000:00:00
PU1XMG-162026-09-03 12:30:18-22.52644-42.4302131°11km/h20490m8.9m/s-62.8°C2.0%53.2hPa0V00:00:0000:00:0000:00:00
PU1XMG-162026-09-03 12:30:13-22.52644-42.43029131°4km/h20453m9.0m/s-62.9°C2.0%53.5hPa0V00:00:0000:00:0000:00:00
PU1XMG-162026-09-03 12:30:06-22.52648-42.4303556°13km/h20405m4.9m/s0°C0%53.9hPa0V00:00:0000:00:0000:00:00
PU1XMG-162026-09-03 12:30:00-22.52660-42.4305145°16km/h20373m6.5m/s0°C0%54.2hPa0V00:00:0000:00:0000:00:00
PU1XMG-162026-09-03 12:29:55-22.52674-42.4306138°5km/h20334m6.5m/s0°C0%54.6hPa0V00:00:0000:00:0000:00:00
PU1XMG-162026-09-03 12:29:49-22.52683-42.4307361°18km/h20291m4.6m/s0°C0%0hPa0V00:00:0000:00:0000:00:00
PU1XMG-162026-09-03 12:29:42-22.52695-42.4309865°16km/h20255m6.9m/s0°C0%0hPa0V00:00:0000:00:0000:00:00
PU1XMG-162026-09-03 12:29:38-22.52706-42.4312055°22km/h20222m2.5m/s0°C0%0hPa0V00:00:0000:00:0000:00:00
PU1XMG-162026-09-03 12:29:30-22.52730-42.4316265°27km/h20176m9.3m/s0°C0%0hPa0V00:00:0000:00:0000:00:00
PU1XMG-162026-09-03 12:29:24-22.52740-42.4320181°22km/h20138m4.8m/s0°C0%0hPa0V00:00:0000:00:0000:00:00
PU1XMG-162026-09-03 12:29:18-22.52755-42.4324571°20km/h20089m4.9m/s0°C0%0hPa0V00:00:0000:00:0000:00:00
PU1XMG-162026-09-03 12:29:11-22.52758-42.4327497°24km/h20054m10.0m/s0°C0%0hPa0V00:00:0000:00:0000:00:00
PU1XMG-162026-09-03 12:27:29-22.53080-42.4359536°33km/h19394m9.0m/s-60.7°C2.0%63.6hPa0V00:00:0000:00:0000:00:00
PU1XMG-162026-09-03 12:27:20-22.53131-42.4364538°38km/h19342m11.9m/s-60.3°C2.0%64.1hPa0V00:00:0000:00:0000:00:00
PU1XMG-162026-09-03 12:27:15-22.53182-42.4369355°27km/h19291m5.6m/s-60.2°C1.9%64.5hPa0V00:00:0000:00:0000:00:00
PU1XMG-162026-09-03 12:27:09-22.53199-42.4371752°33km/h19266m6.0m/s-60.9°C2.0%64.9hPa0V00:00:0000:00:0000:00:00
PU1XMG-162026-09-03 12:27:02-22.53232-42.4376262°35km/h19226m4.3m/s-61.0°C2.1%65.3hPa0V00:00:0000:00:0000:00:00
PU1XMG-162026-09-03 12:26:55-22.53256-42.4381972°33km/h19179m7.4m/s-61.0°C2.2%65.8hPa0V00:00:0000:00:0000:00:00
PU1XMG-162026-09-03 12:26:50-22.53270-42.4386777°37km/h19148m4.4m/s-61.0°C2.1%66.1hPa0V00:00:0000:00:0000:00:00
PU1XMG-162026-09-03 12:26:45-22.53282-42.4392478°31km/h19111m4.4m/s-61.4°C2.2%66.5hPa0V00:00:0000:00:0000:00:00
PU1XMG-162026-09-03 12:26:39-22.53291-42.4397180°35km/h19077m7.2m/s-61.9°C2.2%66.9hPa0V00:00:0000:00:0000:00:00
PU1XMG-162026-09-03 12:26:26-22.53299-42.4409993°37km/h19001m9.7m/s-63.1°C2.4%67.7hPa0V00:00:0000:00:0000:00:00
PU1XMG-162026-09-03 12:26:20-22.53298-42.4417196°49km/h18962m9.9m/s-63.7°C2.8%68.2hPa0V00:00:0000:00:0000:00:00
PU1XMG-162026-09-03 12:26:15-22.53281-42.44229115°44km/h18929m5.1m/s-63.5°C2.7%68.5hPa0V00:00:0000:00:0000:00:00
PU1XMG-162026-09-03 12:26:10-22.53258-42.44280112°40km/h18896m8.7m/s-63.5°C2.8%68.9hPa0V00:00:0000:00:0000:00:00
PU1XMG-162026-09-03 12:25:57-22.53203-42.44424124°40km/h18800m8.2m/s-63.5°C2.8%69.9hPa0V00:00:0000:00:0000:00:00
PU1XMG-162026-09-03 12:25:50-22.53183-42.44486105°44km/h18759m8.2m/s-63.8°C3.0%70.4hPa0V00:00:0000:00:0000:00:00
PU1XMG-162026-09-03 12:25:45-22.53172-42.4456096°47km/h18717m8.9m/s-63.8°C3.0%70.8hPa0V00:00:0000:00:0000:00:00
PU1XMG-162026-09-03 12:25:37-22.53173-42.4465089°53km/h18673m5.0m/s-63.7°C3.1%71.4hPa0V00:00:0000:00:0000:00:00
PU1XMG-162026-09-03 12:25:31-22.53172-42.4473893°55km/h18638m4.1m/s-63.7°C3.3%71.8hPa0V00:00:0000:00:0000:00:00
PU1XMG-162026-09-03 12:25:25-22.53176-42.4483183°57km/h18600m4.6m/s-63.5°C3.4%72.3hPa0V00:00:0000:00:0000:00:00
PU1XMG-162026-09-03 12:25:19-22.53188-42.4491785°49km/h18562m3.8m/s-63.7°C3.3%72.7hPa0V00:00:0000:00:0000:00:00
PU1XMG-162026-09-03 12:25:13-22.53191-42.4501490°64km/h18525m3.5m/s-63.7°C3.6%73.2hPa0V00:00:0000:00:0000:00:00
PU1XMG-162026-09-03 12:25:09-22.53190-42.4509791°58km/h18495m7.1m/s-64.0°C3.6%73.5hPa0V00:00:0000:00:0000:00:00
PU1XMG-162026-09-03 12:24:59-22.53208-42.4526282°68km/h18429m8.1m/s-64.7°C3.9%74.3hPa0V00:00:0000:00:0000:00:00
PU1XMG-162026-09-03 12:24:34-22.53225-42.4572097°73km/h18286m4.6m/s-66.5°C4.4%76.1hPa0V00:00:0000:00:0000:00:00
PU1XMG-162026-09-03 12:24:28-22.53211-42.45849100°84km/h18247m3.8m/s-66.9°C4.7%76.6hPa0V00:00:0000:00:0000:00:00
PU1XMG-162026-09-03 12:24:23-22.53189-42.45972106°69km/h18209m4.9m/s-67.5°C4.6%77.0hPa0V00:00:0000:00:0000:00:00
PU1XMG-162026-09-03 12:24:17-22.53164-42.46070106°82km/h18179m5.2m/s-68.8°C5.0%77.5hPa0V00:00:0000:00:0000:00:00
PU1XMG-162026-09-03 12:24:12-22.53136-42.46173113°75km/h18151m6.7m/s-69.1°C5.2%77.9hPa0V00:00:0000:00:0000:00:00
PU1XMG-162026-09-03 12:24:07-22.53094-42.46273116°66km/h18112m7.6m/s-69.6°C5.1%78.3hPa0V00:00:0000:00:0000:00:00
PU1XMG-162026-09-03 12:24:02-22.53056-42.46352121°62km/h18083m3.7m/s-70.2°C5.3%78.8hPa0V00:00:0000:00:0000:00:00
PU1XMG-162026-09-03 12:23:55-22.53016-42.46432111°49km/h18040m4.4m/s-71.3°C6.1%79.3hPa0V00:00:0000:00:0000:00:00
PU1XMG-162026-09-03 12:23:49-22.52995-42.46523103°46km/h17998m7.7m/s-71.1°C6.1%79.8hPa0V00:00:0000:00:0000:00:00
PU1XMG-162026-09-03 12:23:44-22.52980-42.46583107°46km/h17965m5.2m/s-71.2°C5.9%80.3hPa0V00:00:0000:00:0000:00:00
PU1XMG-162026-09-03 12:23:39-22.52964-42.46644106°49km/h17932m5.6m/s-71.1°C6.0%80.7hPa0V00:00:0000:00:0000:00:00
PU1XMG-162026-09-03 12:23:34-22.52944-42.46706114°51km/h17899m5.8m/s-71.0°C5.9%81.1hPa0V00:00:0000:00:0000:00:00
PU1XMG-162026-09-03 12:23:27-22.52912-42.46787112°55km/h17861m5.2m/s-71.0°C5.9%81.7hPa0V00:00:0000:00:0000:00:00
PU1XMG-162026-09-03 12:23:21-22.52881-42.46871116°58km/h17824m6.9m/s-70.8°C5.9%82.2hPa0V00:00:0000:00:0000:00:00
PU1XMG-162026-09-03 12:23:15-22.52838-42.46960118°62km/h17790m6.4m/s-70.6°C5.7%82.7hPa0V00:00:0000:00:0000:00:00
PU1XMG-162026-09-03 12:23:10-22.52804-42.47034115°57km/h17759m3.1m/s-70.3°C5.8%83.1hPa0V00:00:0000:00:0000:00:00
PU1XMG-162026-09-03 12:23:05-22.52771-42.47105120°58km/h17730m9.1m/s-70.1°C5.7%83.5hPa0V00:00:0000:00:0000:00:00
PU1XMG-162026-09-03 12:23:01-22.52735-42.47173121°55km/h17699m6.3m/s-70.0°C5.8%84.0hPa0V00:00:0000:00:0000:00:00
PU1XMG-162026-09-03 12:22:54-22.52693-42.47249119°55km/h17658m5.6m/s-69.6°C5.7%84.6hPa0V00:00:0000:00:0000:00:00
PU1XMG-162026-09-03 12:22:50-22.52664-42.47312114°49km/h17621m8.2m/s-69.3°C5.5%85.1hPa0V00:00:0000:00:0000:00:00
PU1XMG-162026-09-03 12:22:45-22.52641-42.47371116°46km/h17585m5.1m/s-69.0°C5.5%85.6hPa0V00:00:0000:00:0000:00:00
PU1XMG-162026-09-03 12:22:39-22.52613-42.47440113°47km/h17544m4.4m/s-68.8°C5.5%86.2hPa0V00:00:0000:00:0000:00:00
PU1XMG-162026-09-03 12:22:33-22.52589-42.47507111°42km/h17505m4.4m/s-68.6°C5.5%86.8hPa0V00:00:0000:00:0000:00:00
PU1XMG-162026-09-03 12:22:28-22.52572-42.47561110°42km/h17474m7.1m/s-68.4°C5.4%87.2hPa0V00:00:0000:00:0000:00:00
PU1XMG-162026-09-03 12:22:22-22.52551-42.47617114°46km/h17444m4.5m/s-68.1°C5.3%87.7hPa0V00:00:0000:00:0000:00:00
PU1XMG-162026-09-03 12:22:17-22.52530-42.47671112°44km/h17411m8.4m/s-68.0°C5.4%88.1hPa0V00:00:0000:00:0000:00:00
PU1XMG-162026-09-03 12:22:11-22.52502-42.47736122°44km/h17375m6.6m/s-67.7°C5.2%88.7hPa0V00:00:0000:00:0000:00:00
PU1XMG-162026-09-03 12:22:07-22.52473-42.47780127°37km/h17342m4.2m/s-68.2°C5.5%89.2hPa0V00:00:0000:00:0000:00:00
PU1XMG-162026-09-03 12:22:01-22.52451-42.47839107°38km/h17307m5.0m/s-67.8°C5.8%89.7hPa0V00:00:0000:00:0000:00:00
PU1XMG-162026-09-03 12:21:55-22.52431-42.47893117°33km/h17264m5.7m/s-67.5°C5.6%90.3hPa0V00:00:0000:00:0000:00:00
PU1XMG-162026-09-03 12:21:49-22.52415-42.47947100°38km/h17229m7.0m/s-67.4°C5.7%90.8hPa0V00:00:0000:00:0000:00:00
PU1XMG-162026-09-03 12:21:43-22.52401-42.48004113°33km/h17193m7.9m/s-67.3°C5.7%91.4hPa0V00:00:0000:00:0000:00:00
PU1XMG-162026-09-03 12:21:38-22.52385-42.48046106°31km/h17160m5.0m/s-67.1°C5.6%91.9hPa0V00:00:0000:00:0000:00:00
PU1XMG-162026-09-03 12:21:32-22.52376-42.48090103°37km/h17127m7.5m/s-67.1°C5.7%92.3hPa0V00:00:0000:00:0000:00:00
PU1XMG-162026-09-03 12:21:27-22.52360-42.48149112°35km/h17091m7.5m/s-66.9°C5.8%92.9hPa0V00:00:0000:00:0000:00:00
PU1XMG-162026-09-03 12:21:21-22.52344-42.48186111°29km/h17061m8.1m/s-66.9°C5.8%93.3hPa0V00:00:0000:00:0000:00:00
PU1XMG-162026-09-03 12:21:15-22.52337-42.4824798°42km/h17022m6.7m/s-67.5°C6.1%94.0hPa0V00:00:0000:00:0000:00:00
PU1XMG-162026-09-03 12:21:10-22.52331-42.4830797°42km/h16987m4.9m/s-67.4°C6.3%94.5hPa0V00:00:0000:00:0000:00:00
PU1XMG-162026-09-03 12:21:05-22.52327-42.4835892°35km/h16955m7.1m/s-67.2°C6.3%95.0hPa0V00:00:0000:00:0000:00:00
PU1XMG-162026-09-03 12:20:59-22.52326-42.4841892°37km/h16919m5.4m/s-67.1°C6.7%95.6hPa0V00:00:0000:00:0000:00:00
PU1XMG-162026-09-03 12:20:54-22.52329-42.4846382°29km/h16886m6.6m/s-66.8°C6.5%96.1hPa0V00:00:0000:00:0000:00:00
PU1XMG-162026-09-03 12:20:49-22.52331-42.4851589°35km/h16852m7.4m/s-66.8°C6.5%96.7hPa0V00:00:0000:00:0000:00:00
PU1XMG-162026-09-03 12:20:42-22.52337-42.4856280°24km/h16814m8.5m/s-66.9°C6.7%97.3hPa0V00:00:0000:00:0000:00:00
PU1XMG-162026-09-03 12:20:38-22.52346-42.4858969°22km/h16782m7.4m/s-67.1°C6.7%97.8hPa0V00:00:0000:00:0000:00:00
PU1XMG-162026-09-03 12:20:32-22.52360-42.4863174°27km/h16743m8.4m/s-67.1°C6.9%98.4hPa0V00:00:0000:00:0000:00:00
PU1XMG-162026-09-03 12:20:26-22.52372-42.4867173°38km/h16712m4.5m/s-67.2°C7.2%99.0hPa0V00:00:0000:00:0000:00:00
PU1XMG-162026-09-03 12:20:17-22.52406-42.4877476°47km/h16646m4.1m/s-67.8°C7.5%100.0hPa0V00:00:0000:00:0000:00:00
PU1XMG-162026-09-03 12:20:11-22.52434-42.4885363°57km/h16613m6.5m/s-68.2°C8.1%100.6hPa0V00:00:0000:00:0000:00:00
PU1XMG-162026-09-03 12:20:06-22.52463-42.4892474°55km/h16583m6.2m/s-68.4°C8.1%101.1hPa0V00:00:0000:00:0000:00:00
PU1XMG-162026-09-03 12:19:59-22.52491-42.4903358°68km/h16544m10.1m/s-68.3°C7.7%101.6hPa0V00:00:0000:00:0000:00:00
PU1XMG-162026-09-03 12:19:53-22.52542-42.4912471°88km/h16507m6.5m/s-68.6°C8.3%102.3hPa0V00:00:0000:00:0000:00:00
PU1XMG-162026-09-03 12:19:48-22.52577-42.4923167°82km/h16469m7.0m/s-68.6°C8.4%103.0hPa0V00:00:0000:00:0000:00:00
PU1XMG-162026-09-03 12:19:42-22.52625-42.4935465°86km/h16425m6.3m/s-69.0°C8.6%103.8hPa0V00:00:0000:00:0000:00:00
PU1XMG-162026-09-03 12:19:37-22.52673-42.4946667°89km/h16387m6.3m/s-69.0°C8.5%104.4hPa0V00:00:0000:00:0000:00:00
PU1XMG-162026-09-03 12:19:32-22.52731-42.4961869°108km/h16346m5.1m/s-69.1°C8.6%105.1hPa0V00:00:0000:00:0000:00:00
PU1XMG-162026-09-03 12:19:26-22.52792-42.4978069°106km/h16310m6.6m/s-69.2°C8.4%105.8hPa0V00:00:0000:00:0000:00:00
PU1XMG-162026-09-03 12:19:19-22.52864-42.4997470°111km/h16267m5.1m/s-69.3°C8.3%106.5hPa0V00:00:0000:00:0000:00:00
PU1XMG-162026-09-03 12:19:13-22.52919-42.5012269°120km/h16240m4.9m/s-69.6°C8.6%107.1hPa0V00:00:0000:00:0000:00:00
PU1XMG-162026-09-03 12:19:09-22.52971-42.5027672°120km/h16210m7.5m/s-70.2°C8.9%107.6hPa0V00:00:0000:00:0000:00:00
PU1XMG-162026-09-03 12:19:03-22.53030-42.5046473°122km/h16173m7.1m/s-70.5°C9.0%108.3hPa0V00:00:0000:00:0000:00:00
PU1XMG-162026-09-03 12:18:57-22.53070-42.5062879°124km/h16143m10.0m/s-70.5°C8.9%108.8hPa0V00:00:0000:00:0000:00:00
PU1XMG-162026-09-03 12:18:51-22.53107-42.5082479°120km/h16102m7.8m/s-70.5°C9.1%109.6hPa0V00:00:0000:00:0000:00:00
PU1XMG-162026-09-03 12:18:45-22.53141-42.5101984°120km/h16063m7.6m/s-70.4°C9.5%110.2hPa0V00:00:0000:00:0000:00:00
PU1XMG-162026-09-03 12:18:39-22.53164-42.5127685°119km/h16013m5.5m/s-70.3°C9.3%111.0hPa0V00:00:0000:00:0000:00:00
PU1XMG-162026-09-03 12:18:33-22.53180-42.5143988°117km/h15986m4.4m/s-69.9°C9.8%111.7hPa0V00:00:0000:00:0000:00:00
PU1XMG-162026-09-03 12:18:27-22.53185-42.5162087°106km/h15953m5.0m/s-69.5°C9.4%112.4hPa0V00:00:0000:00:0000:00:00
PU1XMG-162026-09-03 12:18:20-22.53204-42.5180484°119km/h15914m4.2m/s-69.2°C9.6%113.1hPa0V00:00:0000:00:0000:00:00
PU1XMG-162026-09-03 12:18:12-22.53233-42.5204685°106km/h15863m6.6m/s-68.8°C9.7%114.1hPa0V00:00:0000:00:0000:00:00
PU1XMG-162026-09-03 12:18:08-22.53245-42.5219486°110km/h15836m7.3m/s-68.7°C10.0%114.6hPa0V00:00:0000:00:0000:00:00
PU1XMG-162026-09-03 12:18:01-22.53276-42.5240282°108km/h15793m4.3m/s-68.8°C10.4%115.4hPa0V00:00:0000:00:0000:00:00
PU1XMG-162026-09-03 12:17:55-22.53294-42.5254584°108km/h15760m6.1m/s-68.9°C10.0%116.0hPa0V00:00:0000:00:0000:00:00
PU1XMG-162026-09-03 12:17:50-22.53317-42.5269578°111km/h15728m7.9m/s-69.0°C10.8%116.7hPa0V00:00:0000:00:0000:00:00
PU1XMG-162026-09-03 12:17:44-22.53370-42.5286970°111km/h15684m8.0m/s-68.8°C10.9%117.5hPa0V00:00:0000:00:0000:00:00
PU1XMG-162026-09-03 12:17:38-22.53428-42.5303873°110km/h15647m4.7m/s-68.9°C11.2%118.2hPa0V00:00:0000:00:0000:00:00
PU1XMG-162026-09-03 12:17:27-22.53552-42.5338070°111km/h15576m6.5m/s-69.1°C11.9%119.6hPa0V00:00:0000:00:0000:00:00
PU1XMG-162026-09-03 12:17:19-22.53635-42.5361469°117km/h15527m5.6m/s-69.1°C12.1%120.6hPa0V00:00:0000:00:0000:00:00
PU1XMG-162026-09-03 12:17:13-22.53701-42.5379068°119km/h15493m4.9m/s-69.0°C11.6%121.3hPa0V00:00:0000:00:0000:00:00
PU1XMG-162026-09-03 12:17:06-22.53770-42.5396869°117km/h15457m5.6m/s-68.9°C11.6%122.0hPa0V00:00:0000:00:0000:00:00
PU1XMG-162026-09-03 12:17:02-22.53829-42.5412067°124km/h15428m5.8m/s-68.9°C12.3%122.7hPa0V00:00:0000:00:0000:00:00
PU1XMG-162026-09-03 12:16:55-22.53940-42.5435764°122km/h15379m5.3m/s-68.9°C12.0%123.5hPa0V00:00:0000:00:0000:00:00
PU1XMG-162026-09-03 12:16:49-22.54010-42.5450763°126km/h15349m5.5m/s-68.8°C11.6%124.2hPa0V00:00:0000:00:0000:00:00
PU1XMG-162026-09-03 12:16:44-22.54088-42.5466062°128km/h15318m6.0m/s-68.5°C11.8%124.9hPa0V00:00:0000:00:0000:00:00
PU1XMG-162026-09-03 12:16:38-22.54173-42.5484265°124km/h15284m5.2m/s-68.2°C11.8%125.6hPa0V00:00:0000:00:0000:00:00
PU1XMG-162026-09-03 12:16:32-22.54247-42.5499563°128km/h15252m5.1m/s-68.2°C11.9%126.3hPa0V00:00:0000:00:0000:00:00
PU1XMG-162026-09-03 12:16:27-22.54333-42.5517565°120km/h15217m5.1m/s-68.0°C11.1%127.0hPa0V00:00:0000:00:0000:00:00
PU1XMG-162026-09-03 12:16:21-22.54401-42.5532765°126km/h15187m4.1m/s-67.8°C10.9%127.7hPa0V00:00:0000:00:0000:00:00
PU1XMG-162026-09-03 12:16:13-22.54519-42.5557062°126km/h15137m5.0m/s-67.7°C11.6%128.8hPa0V00:00:0000:00:0000:00:00
PU1XMG-162026-09-03 12:16:08-22.54610-42.5574862°120km/h15100m7.5m/s-67.9°C10.5%129.5hPa0V00:00:0000:00:0000:00:00
PU1XMG-162026-09-03 12:16:02-22.54697-42.5591861°120km/h15065m6.1m/s-67.7°C10.4%130.3hPa0V00:00:0000:00:0000:00:00
PU1XMG-162026-09-03 12:15:57-22.54784-42.5607160°137km/h15031m7.1m/s-67.6°C10.4%131.0hPa0V00:00:0000:00:0000:00:00
PU1XMG-162026-09-03 12:15:51-22.54888-42.5626059°131km/h14994m5.1m/s-67.5°C10.2%131.8hPa0V00:00:0000:00:0000:00:00
PU1XMG-162026-09-03 12:15:46-22.54984-42.5641357°137km/h14963m7.7m/s-67.5°C10.0%132.4hPa0V00:00:0000:00:0000:00:00
PU1XMG-162026-09-03 12:15:39-22.55117-42.5663658°144km/h14918m7.8m/s-67.3°C9.9%133.4hPa0V00:00:0000:00:0000:00:00
PU1XMG-162026-09-03 12:15:32-22.55265-42.5687558°153km/h14871m5.4m/s-66.9°C9.5%134.5hPa0V00:00:0000:00:0000:00:00
PU1XMG-162026-09-03 12:15:27-22.55371-42.5704757°148km/h14839m7.4m/s-66.7°C9.1%135.2hPa0V00:00:0000:00:0000:00:00
PU1XMG-162026-09-03 12:15:20-22.55507-42.5724655°157km/h14802m7.5m/s-66.4°C9.3%136.0hPa0V00:00:0000:00:0000:00:00
PU1XMG-162026-09-03 12:15:14-22.55725-42.5760956°151km/h14740m8.5m/s-66.2°C9.7%136.9hPa0V00:00:0000:00:0000:00:00
PU1XMG-162026-09-03 12:15:06-22.55816-42.5774455°155km/h14715m8.0m/s-66.3°C9.8%138.0hPa0V00:00:0000:00:0000:00:00
PU1XMG-162026-09-03 12:15:01-22.55940-42.5796862°162km/h14671m6.0m/s-66.1°C10.1%139.0hPa0V00:00:0000:00:0000:00:00
PU1XMG-162026-09-03 12:14:55-22.56084-42.5823861°162km/h14626m7.5m/s-66.0°C9.8%139.8hPa0V00:00:0000:00:0000:00:00
PU1XMG-162026-09-03 12:14:50-22.56183-42.5844364°168km/h14596m6.1m/s-65.8°C10.3%140.6hPa0V00:00:0000:00:0000:00:00
PU1XMG-162026-09-03 12:14:44-22.56275-42.5864366°161km/h14568m7.3m/s-65.6°C10.5%141.3hPa0V00:00:0000:00:0000:00:00
PU1XMG-162026-09-03 12:14:39-22.56363-42.5884266°162km/h14538m5.5m/s-65.5°C10.9%142.0hPa0V00:00:0000:00:0000:00:00
PU1XMG-162026-09-03 12:14:33-22.56470-42.5909166°164km/h14507m6.3m/s-65.5°C10.3%142.8hPa0V00:00:0000:00:0000:00:00
PU1XMG-162026-09-03 12:14:27-22.56556-42.5929568°161km/h14468m5.2m/s-65.3°C11.0%143.8hPa0V00:00:0000:00:0000:00:00
PU1XMG-162026-09-03 12:14:22-22.56625-42.5950572°161km/h14439m5.4m/s-65.2°C11.1%144.4hPa0V00:00:0000:00:0000:00:00
PU1XMG-162026-09-03 12:14:17-22.56708-42.5975872°162km/h14405m5.7m/s-65.3°C11.5%145.2hPa0V00:00:0000:00:0000:00:00
PU1XMG-162026-09-03 12:14:11-22.56771-42.5997374°168km/h14371m6.6m/s-65.0°C11.2%146.0hPa0V00:00:0000:00:0000:00:00
PU1XMG-162026-09-03 12:14:06-22.56844-42.6023774°166km/h14334m5.4m/s-64.7°C11.1%146.9hPa0V00:00:0000:00:0000:00:00
PU1XMG-162026-09-03 12:14:00-22.56943-42.6058476°168km/h14284m6.3m/s-64.5°C10.8%147.8hPa0V00:00:0000:00:0000:00:00
PU1XMG-162026-09-03 12:13:53-22.56988-42.6076175°168km/h14261m5.3m/s-64.1°C10.5%148.7hPa0V00:00:0000:00:0000:00:00
PU1XMG-162026-09-03 12:13:48-22.57062-42.6102274°168km/h14223m4.6m/s-63.8°C10.4%149.5hPa0V00:00:0000:00:0000:00:00
PU1XMG-162026-09-03 12:13:42-22.57135-42.6128975°170km/h14190m7.5m/s-63.5°C10.2%150.4hPa0V00:00:0000:00:0000:00:00
PU1XMG-162026-09-03 12:13:35-22.57207-42.6155175°168km/h14156m3.9m/s-63.2°C10.5%151.2hPa0V00:00:0000:00:0000:00:00
PU1XMG-162026-09-03 12:13:30-22.57295-42.6186275°172km/h14114m6.8m/s-62.8°C9.8%152.1hPa0V00:00:0000:00:0000:00:00
PU1XMG-162026-09-03 12:13:23-22.57353-42.6208475°168km/h14084m6.6m/s-62.5°C10.0%153.0hPa0V00:00:0000:00:0000:00:00
PU1XMG-162026-09-03 12:13:19-22.57415-42.6230274°168km/h14051m5.2m/s-62.2°C10.0%153.8hPa0V00:00:0000:00:0000:00:00
PU1XMG-162026-09-03 12:13:13-22.57481-42.6256876°166km/h14015m7.0m/s-62.0°C10.1%154.7hPa0V00:00:0000:00:0000:00:00
PU1XMG-162026-09-03 12:13:07-22.57537-42.6278976°170km/h13986m6.2m/s-61.8°C9.8%155.4hPa0V00:00:0000:00:0000:00:00
PU1XMG-162026-09-03 12:13:03-22.57594-42.6301276°168km/h13955m4.9m/s-61.6°C9.8%156.2hPa0V00:00:0000:00:0000:00:00
PU1XMG-162026-09-03 12:12:57-22.57656-42.6328478°170km/h13918m6.4m/s-61.6°C10.0%157.1hPa0V00:00:0000:00:0000:00:00
PU1XMG-162026-09-03 12:12:30-22.57898-42.6446580°175km/h13771m4.1m/s-60.8°C9.7%160.9hPa0V00:00:0000:00:0000:00:00
PU1XMG-162026-09-03 12:12:25-22.58002-42.6492873°172km/h13721m8.8m/s-60.6°C10.0%161.6hPa0V00:00:0000:00:0000:00:00
PU1XMG-162026-09-03 12:12:19-22.58049-42.6510976°173km/h13695m8.5m/s-60.3°C9.9%162.3hPa0V00:00:0000:00:0000:00:00
PU1XMG-162026-09-03 12:12:12-22.58101-42.6533877°175km/h13667m6.1m/s-60.1°C9.9%163.6hPa0V00:00:0000:00:0000:00:00
PU1XMG-162026-09-03 12:11:14-22.58823-42.6806977°179km/h13318m5.3m/s0°C0%0hPa0V00:00:0000:00:0000:00:00
PU1XMG-162026-09-03 12:11:08-22.58868-42.6825876°177km/h13297m6.4m/s0°C0%0hPa0V00:00:0000:00:0000:00:00
PU1XMG-162026-09-03 12:11:02-22.58937-42.6853677°179km/h13259m5.4m/s0°C0%0hPa0V00:00:0000:00:0000:00:00
PU1XMG-162026-09-03 12:10:57-22.58991-42.6877677°181km/h13229m7.7m/s0°C0%0hPa0V00:00:0000:00:0000:00:00
PU1XMG-162026-09-03 12:10:52-22.59064-42.6906077°179km/h13194m4.7m/s0°C0%0hPa0V00:00:0000:00:0000:00:00
PU1XMG-162026-09-03 12:10:46-22.59124-42.6934479°179km/h13158m5.5m/s0°C0%0hPa0V00:00:0000:00:0000:00:00
PU1XMG-162026-09-03 12:10:40-22.59185-42.6963177°177km/h13128m4.9m/s0°C0%0hPa0V00:00:0000:00:0000:00:00
PU1XMG-162026-09-03 12:10:34-22.59246-42.6992278°183km/h13092m7.4m/s0°C0%0hPa0V00:00:0000:00:0000:00:00
PU1XMG-162026-09-03 12:10:28-22.59293-42.7015979°175km/h13060m5.8m/s0°C0%0hPa0V00:00:0000:00:0000:00:00
PU1XMG-162026-09-03 12:10:23-22.59348-42.7044779°179km/h13027m6.0m/s0°C0%0hPa0V00:00:0000:00:0000:00:00
PU1XMG-162026-09-03 12:10:17-22.59402-42.7073179°175km/h12992m5.1m/s0°C0%0hPa0V00:00:0000:00:0000:00:00
PU1XMG-162026-09-03 12:10:12-22.59447-42.7096379°173km/h12963m5.2m/s0°C0%0hPa0V00:00:0000:00:0000:00:00
PU1XMG-162026-09-03 12:10:06-22.59499-42.7124580°175km/h12926m6.8m/s0°C0%0hPa0V00:00:0000:00:0000:00:00
PU1XMG-162026-09-03 12:09:57-22.59567-42.7161178°170km/h12882m5.5m/s0°C0%0hPa0V00:00:0000:00:0000:00:00
PU1XMG-162026-09-03 12:09:48-22.59658-42.7207479°173km/h12820m6.1m/s0°C0%0hPa0V00:00:0000:00:0000:00:00
PU1XMG-162026-09-03 12:09:42-22.59714-42.7235379°173km/h12781m6.3m/s0°C0%0hPa0V00:00:0000:00:0000:00:00
PU1XMG-162026-09-03 12:08:22-22.60573-42.7593772°173km/h12317m5.6m/s-50.5°C6.3%202.0hPa0V00:00:0000:00:0000:00:00
PU1XMG-162026-09-03 12:07:52-22.60952-42.7721774°173km/h12153m4.3m/s-49.1°C5.8%207.1hPa0V00:00:0000:00:0000:00:00
PU1XMG-162026-09-03 12:07:48-22.61017-42.7743872°170km/h12126m6.4m/s-49.0°C5.7%207.9hPa0V00:00:0000:00:0000:00:00
PU1XMG-162026-09-03 12:07:43-22.61086-42.7765774°168km/h12096m5.3m/s-48.8°C5.7%208.9hPa0V00:00:0000:00:0000:00:00
PU1XMG-162026-09-03 12:07:36-22.61183-42.7796470°173km/h12055m5.5m/s-48.5°C5.6%210.2hPa0V00:00:0000:00:0000:00:00
PU1XMG-162026-09-03 12:07:29-22.61287-42.7826970°170km/h12014m5.9m/s-48.2°C5.6%211.3hPa0V00:00:0000:00:0000:00:00
PU1XMG-162026-09-03 12:07:24-22.61368-42.7848569°173km/h11988m5.5m/s-48.1°C5.7%212.4hPa0V00:00:0000:00:0000:00:00
PU1XMG-162026-09-03 12:07:11-22.61573-42.7904566°175km/h11920m5.3m/s-47.6°C5.6%214.6hPa0V00:00:0000:00:0000:00:00
PU1XMG-162026-09-03 12:04:48-22.64406-42.8509463°172km/h11108m4.7m/s-41.6°C5.3%242.1hPa0V00:00:0000:00:0000:00:00
PU1XMG-162026-09-03 12:04:21-22.64950-42.8620164°181km/h10958m7.2m/s-40.7°C4.6%247.5hPa0V00:00:0000:00:0000:00:00
PU1XMG-162026-09-03 12:04:12-22.65153-42.8662965°175km/h10903m4.9m/s-40.6°C4.6%249.5hPa0V00:00:0000:00:0000:00:00
PU1XMG-162026-09-03 12:00:32-22.69136-42.9601763°168km/h9685m6.2m/s-32.2°C4.2%297.1hPa0V00:00:0000:00:0000:00:00
PU1XMG-162026-09-03 12:00:26-22.69235-42.9621763°164km/h9658m5.8m/s-31.9°C4.1%298.2hPa0V00:00:0000:00:0000:00:00
PU1XMG-162026-09-03 12:00:21-22.69353-42.9646465°172km/h9625m4.2m/s-31.6°C4.0%299.6hPa0V00:00:0000:00:0000:00:00
PU1XMG-162026-09-03 12:00:15-22.69468-42.9671164°164km/h9592m5.8m/s-31.3°C4.0%301.0hPa0V00:00:0000:00:0000:00:00
PU1XMG-162026-09-03 12:00:09-22.69589-42.9694662°164km/h9559m6.8m/s-31.0°C3.9%302.3hPa0V00:00:0000:00:0000:00:00
PU1XMG-162026-09-03 12:00:04-22.69686-42.9714964°166km/h9527m7.1m/s-30.7°C3.8%303.8hPa0V00:00:0000:00:0000:00:00
PU1XMG-162026-09-03 11:59:58-22.69803-42.9739667°166km/h9493m7.3m/s-30.3°C3.8%305.3hPa0V00:00:0000:00:0000:00:00
PU1XMG-162026-09-03 11:59:52-22.69908-42.9764264°168km/h9450m6.9m/s-30.0°C3.7%307.0hPa0V00:00:0000:00:0000:00:00
PU1XMG-162026-09-03 11:59:45-22.70027-42.9788963°173km/h9408m6.3m/s-29.7°C3.6%308.8hPa0V00:00:0000:00:0000:00:00
PU1XMG-162026-09-03 11:59:40-22.70166-42.9817363°164km/h9371m5.3m/s-29.4°C3.6%310.3hPa0V00:00:0000:00:0000:00:00
PU1XMG-162026-09-03 11:59:35-22.70264-42.9837663°166km/h9344m7.5m/s-29.3°C3.7%311.5hPa0V00:00:0000:00:0000:00:00
PU1XMG-162026-09-03 11:59:29-22.70360-42.9857965°166km/h9311m6.3m/s-29.1°C3.7%313.1hPa0V00:00:0000:00:0000:00:00
PU1XMG-162026-09-03 11:59:24-22.70453-42.9878564°162km/h9283m6.0m/s-28.9°C3.8%314.4hPa0V00:00:0000:00:0000:00:00
PU1XMG-162026-09-03 11:59:18-22.70564-42.9902166°162km/h9242m5.6m/s-28.7°C4.1%316.1hPa0V00:00:0000:00:0000:00:00
PU1XMG-162026-09-03 11:59:12-22.70683-42.9926762°172km/h9207m8.6m/s-28.6°C4.7%317.7hPa0V00:00:0000:00:0000:00:00
PU1XMG-162026-09-03 11:59:06-22.70810-42.9950762°164km/h9170m5.0m/s-28.6°C5.5%319.3hPa0V00:00:0000:00:0000:00:00
PU1XMG-162026-09-03 11:59:00-22.70957-42.9978861°170km/h9125m4.6m/s-28.5°C5.4%321.0hPa0V00:00:0000:00:0000:00:00
PU1XMG-162026-09-03 11:58:54-22.71062-42.9998562°164km/h9099m8.0m/s-28.2°C5.1%322.5hPa0V00:00:0000:00:0000:00:00
PU1XMG-162026-09-03 11:58:45-22.71443-43.0077865°164km/h8978m7.1m/s-27.7°C4.9%325.0hPa0V00:00:0000:00:0000:00:00
PU1XMG-162026-09-03 11:58:31-22.71498-43.0090165°168km/h8960m3.4m/s-27.0°C5.2%328.6hPa0V00:00:0000:00:0000:00:00
PU1XMG-162026-09-03 11:58:26-22.71594-43.0110662°170km/h8930m6.7m/s-26.8°C5.1%330.0hPa0V00:00:0000:00:0000:00:00
PU1XMG-162026-09-03 11:58:19-22.71772-43.0146063°162km/h8872m5.7m/s-26.4°C5.0%331.9hPa0V00:00:0000:00:0000:00:00
PU1XMG-162026-09-03 11:58:12-22.71866-43.0166065°161km/h8844m3.7m/s-25.9°C5.0%334.1hPa0V00:00:0000:00:0000:00:00
PU1XMG-162026-09-03 11:58:06-22.71976-43.0190465°175km/h8812m4.5m/s-25.7°C4.9%335.4hPa0V00:00:0000:00:0000:00:00
PU1XMG-162026-09-03 11:58:00-22.72099-43.0215364°168km/h8777m8.4m/s-25.4°C4.3%337.0hPa0V00:00:0000:00:0000:00:00
PU1XMG-162026-09-03 11:57:53-22.72214-43.0239064°164km/h8738m4.5m/s-25.0°C4.0%338.9hPa0V00:00:0000:00:0000:00:00
PU1XMG-162026-09-03 11:57:43-22.72436-43.0283865°164km/h8676m4.8m/s-24.5°C2.7%341.8hPa0V00:00:0000:00:0000:00:00
PU1XMG-162026-09-03 11:57:37-22.72554-43.0308162°164km/h8638m7.4m/s-24.2°C2.6%343.6hPa0V00:00:0000:00:0000:00:00
PU1XMG-162026-09-03 11:57:32-22.72655-43.0328364°173km/h8610m5.4m/s-23.9°C2.5%345.0hPa0V00:00:0000:00:0000:00:00
PU1XMG-162026-09-03 11:57:26-22.72757-43.0349361°168km/h8587m5.1m/s-23.7°C2.6%346.1hPa0V00:00:0000:00:0000:00:00
PU1XMG-162026-09-03 11:57:21-22.72873-43.0373666°164km/h8545m7.3m/s-23.5°C2.8%348.0hPa0V00:00:0000:00:0000:00:00
PU1XMG-162026-09-03 11:57:15-22.73005-43.0401761°173km/h8504m5.9m/s-23.3°C3.1%349.7hPa0V00:00:0000:00:0000:00:00
PU1XMG-162026-09-03 11:57:09-22.73115-43.0422562°164km/h8481m6.3m/s-23.0°C3.3%351.0hPa0V00:00:0000:00:0000:00:00
PU1XMG-162026-09-03 11:57:03-22.73212-43.0441866°161km/h8435m9.1m/s-22.7°C3.3%353.1hPa0V00:00:0000:00:0000:00:00
PU1XMG-162026-09-03 11:56:57-22.73310-43.0465663°153km/h8402m4.4m/s-22.3°C3.4%354.8hPa0V00:00:0000:00:0000:00:00
PU1XMG-162026-09-03 11:56:52-22.73410-43.0484760°162km/h8355m8.1m/s-22.0°C3.2%357.1hPa0V00:00:0000:00:0000:00:00
PU1XMG-162026-09-03 11:56:48-22.73507-43.0504066°161km/h8323m5.6m/s-21.7°C3.4%358.7hPa0V00:00:0000:00:0000:00:00
PU1XMG-162026-09-03 11:56:42-22.73618-43.0527663°157km/h8284m4.5m/s-21.4°C3.3%360.6hPa0V00:00:0000:00:0000:00:00
PU1XMG-162026-09-03 11:56:36-22.73712-43.0546763°161km/h8257m5.7m/s-21.2°C3.3%361.8hPa0V00:00:0000:00:0000:00:00
PU1XMG-162026-09-03 11:56:31-22.73826-43.0570464°161km/h8227m5.7m/s-20.9°C3.1%363.3hPa0V00:00:0000:00:0000:00:00
PU1XMG-162026-09-03 11:56:26-22.73916-43.0589763°161km/h8204m4.9m/s-20.7°C3.1%364.5hPa0V00:00:0000:00:0000:00:00
PU1XMG-162026-09-03 11:56:20-22.74034-43.0613064°159km/h8172m6.8m/s-20.4°C3.0%365.9hPa0V00:00:0000:00:0000:00:00
PU1XMG-162026-09-03 11:56:14-22.74143-43.0636664°161km/h8143m5.9m/s-20.1°C2.9%367.6hPa0V00:00:0000:00:0000:00:00
PU1XMG-162026-09-03 11:56:08-22.74259-43.0659662°153km/h8108m7.0m/s-19.8°C2.9%369.3hPa0V00:00:0000:00:0000:00:00
PU1XMG-162026-09-03 11:56:03-22.74352-43.0678663°166km/h8079m4.9m/s-19.5°C2.9%370.7hPa0V00:00:0000:00:0000:00:00
PU1XMG-162026-09-03 11:55:57-22.74477-43.0701961°155km/h8048m6.4m/s-19.2°C2.7%372.4hPa0V00:00:0000:00:0000:00:00
PU1XMG-162026-09-03 11:55:51-22.74588-43.0723962°159km/h8011m6.1m/s-19.0°C2.3%374.2hPa0V00:00:0000:00:0000:00:00
PU1XMG-162026-09-03 11:55:44-22.74766-43.0757363°153km/h7958m6.9m/s-18.7°C2.4%375.9hPa0V00:00:0000:00:0000:00:00
PU1XMG-162026-09-03 11:55:40-22.75019-43.0804961°159km/h7874m7.2m/s-18.5°C2.4%377.3hPa0V00:00:0000:00:0000:00:00
PU1XMG-162026-09-03 11:55:26-22.75060-43.0812360°157km/h7864m6.9m/s-18.0°C2.6%381.5hPa0V00:00:0000:00:0000:00:00
PU1XMG-162026-09-03 11:55:20-22.75183-43.0835161°166km/h7828m4.9m/s-18.5°C2.8%383.4hPa0V00:00:0000:00:0000:00:00
PU1XMG-162026-09-03 11:55:15-22.75327-43.0861558°157km/h7785m4.4m/s-18.7°C3.2%385.3hPa0V00:00:0000:00:0000:00:00
PU1XMG-162026-09-03 11:55:09-22.75438-43.0878856°150km/h7759m5.6m/s-18.9°C3.6%386.9hPa0V00:00:0000:00:0000:00:00
PU1XMG-162026-09-03 11:54:25-22.76357-43.1010756°133km/h7526m4.0m/s-19.4°C5.3%399.2hPa0V00:00:0000:00:0000:00:00
PU1XMG-162026-09-03 11:54:21-22.76454-43.1024352°120km/h7492m8.5m/s-19.5°C5.6%400.9hPa0V00:00:0000:00:0000:00:00
PU1XMG-162026-09-03 11:54:15-22.76864-43.1093859°89km/h7315m7.4m/s-19.8°C7.3%403.1hPa0V00:00:0000:00:0000:00:00
PU1XMG-162026-09-03 11:53:53-22.76864-43.1093859°89km/h7315m7.4m/s-20.7°C19.5%410.9hPa0V00:00:0000:00:0000:00:00
PU1XMG-162026-09-03 11:53:49-22.76936-43.1104054°102km/h7287m6.0m/s-20.5°C18.9%412.4hPa0V00:00:0000:00:0000:00:00
PU1XMG-162026-09-03 11:53:42-22.77027-43.1119057°113km/h7246m4.8m/s-20.2°C18.3%414.7hPa0V00:00:0000:00:0000:00:00
PU1XMG-162026-09-03 11:53:38-22.77105-43.1131160°106km/h7211m9.4m/s-20.1°C17.8%416.5hPa0V00:00:0000:00:0000:00:00
PU1XMG-162026-09-03 11:53:32-22.77173-43.1144056°95km/h7168m4.8m/s-19.7°C17.3%418.9hPa0V00:00:0000:00:0000:00:00
PU1XMG-162026-09-03 11:53:26-22.77237-43.1156570°110km/h7136m6.3m/s-19.5°C16.5%420.7hPa0V00:00:0000:00:0000:00:00
PU1XMG-162026-09-03 11:53:21-22.77299-43.1172564°89km/h7103m6.7m/s-19.2°C15.9%422.5hPa0V00:00:0000:00:0000:00:00
PU1XMG-162026-09-03 11:53:15-22.77367-43.1189666°113km/h7063m7.0m/s-18.9°C15.3%424.5hPa0V00:00:0000:00:0000:00:00
PU1XMG-162026-09-03 11:53:09-22.77419-43.1199258°88km/h7039m6.7m/s-18.6°C14.8%426.0hPa0V00:00:0000:00:0000:00:00
PU1XMG-162026-09-03 11:53:05-22.77471-43.1213269°102km/h7000m3.5m/s-18.4°C13.2%428.0hPa0V00:00:0000:00:0000:00:00
PU1XMG-162026-09-03 11:52:58-22.77530-43.1225063°95km/h6971m5.3m/s-18.1°C12.7%430.0hPa0V00:00:0000:00:0000:00:00
PU1XMG-162026-09-03 11:52:52-22.77586-43.1239375°88km/h6934m4.8m/s-17.9°C11.9%432.2hPa0V00:00:0000:00:0000:00:00
PU1XMG-162026-09-03 11:52:46-22.77623-43.1251865°82km/h6909m5.1m/s-17.8°C10.3%433.9hPa0V00:00:0000:00:0000:00:00
PU1XMG-162026-09-03 11:52:41-22.77679-43.1266774°102km/h6874m6.1m/s-17.7°C10.7%435.9hPa0V00:00:0000:00:0000:00:00
PU1XMG-162026-09-03 11:52:34-22.77733-43.1284080°100km/h6830m6.0m/s-17.7°C11.0%438.2hPa0V00:00:0000:00:0000:00:00
PU1XMG-162026-09-03 11:52:30-22.77757-43.1297477°95km/h6796m6.3m/s-17.5°C11.2%440.0hPa0V00:00:0000:00:0000:00:00
PU1XMG-162026-09-03 11:52:25-22.77777-43.1309079°88km/h6763m4.5m/s-17.2°C11.0%441.9hPa0V00:00:0000:00:0000:00:00
PU1XMG-162026-09-03 11:52:18-22.77806-43.1322181°100km/h6731m7.8m/s-16.9°C11.2%444.2hPa0V00:00:0000:00:0000:00:00
PU1XMG-162026-09-03 11:52:13-22.77821-43.1335785°93km/h6702m3.0m/s-16.7°C11.5%445.8hPa0V00:00:0000:00:0000:00:00
PU1XMG-162026-09-03 11:52:08-22.77845-43.1351382°104km/h6669m4.7m/s-16.5°C11.6%447.8hPa0V00:00:0000:00:0000:00:00
PU1XMG-162026-09-03 11:52:02-22.77876-43.1366382°91km/h6633m7.6m/s-16.3°C11.5%450.0hPa0V00:00:0000:00:0000:00:00
PU1XMG-162026-09-03 11:51:57-22.77903-43.1379970°100km/h6600m6.5m/s-16.0°C11.5%451.9hPa0V00:00:0000:00:0000:00:00
PU1XMG-162026-09-03 11:51:51-22.77940-43.1394579°102km/h6563m3.4m/s-15.7°C12.9%454.1hPa0V00:00:0000:00:0000:00:00
PU1XMG-162026-09-03 11:51:45-22.77981-43.1407866°99km/h6525m7.4m/s-15.5°C13.9%456.4hPa0V00:00:0000:00:0000:00:00
PU1XMG-162026-09-03 11:51:40-22.78018-43.1421481°104km/h6495m7.9m/s-15.3°C14.4%458.3hPa0V00:00:0000:00:0000:00:00
PU1XMG-162026-09-03 11:51:34-22.78054-43.1439682°93km/h6449m5.2m/s-15.3°C16.2%460.6hPa0V00:00:0000:00:0000:00:00
PU1XMG-162026-09-03 11:51:29-22.78083-43.1453576°117km/h6421m7.9m/s-15.5°C21.2%462.7hPa0V00:00:0000:00:0000:00:00
PU1XMG-162026-09-03 11:51:23-22.78127-43.1467769°100km/h6392m9.3m/s-15.6°C23.4%464.4hPa0V00:00:0000:00:0000:00:00
PU1XMG-162026-09-03 11:51:18-22.78189-43.1482768°110km/h6349m5.7m/s-15.4°C27.0%467.1hPa0V00:00:0000:00:0000:00:00
PU1XMG-162026-09-03 11:51:13-22.78246-43.1495966°104km/h6319m7.9m/s-15.2°C27.4%469.1hPa0V00:00:0000:00:0000:00:00
PU1XMG-162026-09-03 11:51:08-22.78296-43.1508273°95km/h6292m5.2m/s-14.9°C28.0%470.9hPa0V00:00:0000:00:0000:00:00
PU1XMG-162026-09-03 11:51:02-22.78338-43.1521167°106km/h6266m6.7m/s-14.6°C27.9%472.5hPa0V00:00:0000:00:0000:00:00
PU1XMG-162026-09-03 11:50:57-22.78388-43.1537874°104km/h6227m6.2m/s-14.3°C27.5%474.9hPa0V00:00:0000:00:0000:00:00
PU1XMG-162026-09-03 11:50:51-22.78443-43.1550262°99km/h6192m5.5m/s-13.9°C27.0%477.1hPa0V00:00:0000:00:0000:00:00
PU1XMG-162026-09-03 11:50:47-22.78501-43.1564068°119km/h6159m7.2m/s-13.6°C26.7%479.0hPa0V00:00:0000:00:0000:00:00
PU1XMG-162026-09-03 11:50:40-22.78566-43.1579564°88km/h6124m6.3m/s-13.3°C26.4%481.2hPa0V00:00:0000:00:0000:00:00
PU1XMG-162026-09-03 11:50:34-22.78611-43.1597675°110km/h6082m6.9m/s-13.0°C26.0%483.4hPa0V00:00:0000:00:0000:00:00
PU1XMG-162026-09-03 11:50:29-22.78664-43.1611465°104km/h6048m5.0m/s-12.6°C25.7%485.7hPa0V00:00:0000:00:0000:00:00
PU1XMG-162026-09-03 11:50:25-22.78718-43.1623065°97km/h6021m8.3m/s-12.4°C25.5%487.2hPa0V00:00:0000:00:0000:00:00
PU1XMG-162026-09-03 11:50:18-22.78762-43.1635171°89km/h5984m8.5m/s-12.1°C28.2%490.1hPa0V00:00:0000:00:0000:00:00
PU1XMG-162026-09-03 11:50:14-22.78801-43.1647170°93km/h5954m6.8m/s-12.0°C30.4%492.0hPa0V00:00:0000:00:0000:00:00
PU1XMG-162026-09-03 11:50:09-22.78843-43.1659575°106km/h5925m5.3m/s-11.8°C31.8%494.0hPa0V00:00:0000:00:0000:00:00
PU1XMG-162026-09-03 11:50:02-22.78892-43.1677071°99km/h5884m5.8m/s-11.4°C31.5%496.5hPa0V00:00:0000:00:0000:00:00
PU1XMG-162026-09-03 11:49:57-22.78932-43.1692375°108km/h5850m7.3m/s-11.2°C30.9%498.6hPa0V00:00:0000:00:0000:00:00
PU1XMG-162026-09-03 11:49:51-22.78980-43.1706066°106km/h5817m7.8m/s-10.9°C30.3%500.7hPa0V00:00:0000:00:0000:00:00
PU1XMG-162026-09-03 11:49:46-22.79047-43.1721471°93km/h5784m5.3m/s-10.6°C30.0%503.1hPa0V00:00:0000:00:0000:00:00
PU1XMG-162026-09-03 11:49:39-22.79091-43.1735270°97km/h5751m6.2m/s-10.3°C29.4%505.3hPa0V00:00:0000:00:0000:00:00
PU1XMG-162026-09-03 11:49:34-22.79145-43.1751674°106km/h5714m4.4m/s-10.0°C28.7%507.7hPa0V00:00:0000:00:0000:00:00
PU1XMG-162026-09-03 11:49:29-22.79186-43.1765470°111km/h5688m7.1m/s-9.8°C27.2%509.4hPa0V00:00:0000:00:0000:00:00
PU1XMG-162026-09-03 11:49:24-22.79237-43.1778066°88km/h5654m7.4m/s-9.6°C26.3%511.6hPa0V00:00:0000:00:0000:00:00
PU1XMG-162026-09-03 11:49:19-22.79295-43.1789762°102km/h5626m4.7m/s-9.4°C26.5%513.5hPa0V00:00:0000:00:0000:00:00
PU1XMG-162026-09-03 11:49:12-22.79355-43.1804363°93km/h5596m5.0m/s-9.2°C26.5%515.6hPa0V00:00:0000:00:0000:00:00
PU1XMG-162026-09-03 11:49:08-22.79412-43.1814465°88km/h5564m4.0m/s-9.0°C26.0%517.7hPa0V00:00:0000:00:0000:00:00
PU1XMG-162026-09-03 11:49:02-22.79475-43.1829766°108km/h5529m6.1m/s-8.7°C25.2%520.0hPa0V00:00:0000:00:0000:00:00
PU1XMG-162026-09-03 11:48:57-22.79534-43.1840753°86km/h5499m7.4m/s-8.5°C24.2%522.1hPa0V00:00:0000:00:0000:00:00
PU1XMG-162026-09-03 11:48:52-22.79603-43.1851059°99km/h5471m4.9m/s-8.2°C23.5%523.7hPa0V00:00:0000:00:0000:00:00
PU1XMG-162026-09-03 11:48:45-22.79671-43.1863962°88km/h5441m4.8m/s-8.0°C22.7%525.9hPa0V00:00:0000:00:0000:00:00
PU1XMG-162026-09-03 11:48:39-22.79748-43.1877751°86km/h5400m7.1m/s-7.7°C23.1%528.2hPa0V00:00:0000:00:0000:00:00
PU1XMG-162026-09-03 11:48:33-22.79819-43.1887957°93km/h5369m8.6m/s-7.4°C23.1%530.9hPa0V00:00:0000:00:0000:00:00
PU1XMG-162026-09-03 11:48:28-22.79905-43.1900353°86km/h5335m5.3m/s-7.2°C24.6%533.2hPa0V00:00:0000:00:0000:00:00
PU1XMG-162026-09-03 11:48:23-22.79973-43.1909052°89km/h5302m4.7m/s-7.0°C24.2%535.4hPa0V00:00:0000:00:0000:00:00
PU1XMG-162026-09-03 11:48:16-22.80049-43.1921860°88km/h5265m6.8m/s-6.7°C23.3%537.7hPa0V00:00:0000:00:0000:00:00
PU1XMG-162026-09-03 11:48:12-22.80095-43.1932165°91km/h5239m5.0m/s-6.4°C22.9%539.5hPa0V00:00:0000:00:0000:00:00
PU1XMG-162026-09-03 11:48:05-22.80174-43.1944756°77km/h5209m3.6m/s-6.2°C22.4%541.5hPa0V00:00:0000:00:0000:00:00
PU1XMG-162026-09-03 11:48:00-22.80218-43.1953767°84km/h5172m6.3m/s-5.8°C21.0%544.1hPa0V00:00:0000:00:0000:00:00
PU1XMG-162026-09-03 11:47:54-22.80290-43.1967362°80km/h5122m5.4m/s-5.4°C18.8%547.2hPa0V00:00:0000:00:0000:00:00
PU1XMG-162026-09-03 11:47:48-22.80342-43.1976549°71km/h5091m5.3m/s-5.1°C18.3%549.9hPa0V00:00:0000:00:0000:00:00
PU1XMG-162026-09-03 11:47:44-22.80390-43.1984469°73km/h5058m8.9m/s-4.8°C18.2%552.2hPa0V00:00:0000:00:0000:00:00
PU1XMG-162026-09-03 11:47:39-22.80428-43.1995165°93km/h5033m6.3m/s-4.5°C18.3%554.0hPa0V00:00:0000:00:0000:00:00
PU1XMG-162026-09-03 11:47:33-22.80500-43.2008358°88km/h4999m9.6m/s-4.2°C18.3%556.5hPa0V00:00:0000:00:0000:00:00
PU1XMG-162026-09-03 11:47:28-22.80558-43.2016054°64km/h4963m3.6m/s-3.9°C15.0%559.0hPa0V00:00:0000:00:0000:00:00
PU1XMG-162026-09-03 11:47:21-22.80616-43.2027165°89km/h4926m8.3m/s-3.6°C14.2%561.4hPa0V00:00:0000:00:0000:00:00
PU1XMG-162026-09-03 11:47:09-22.80738-43.2053352°88km/h4848m5.9m/s-3.2°C10.5%567.1hPa0V00:00:0000:00:0000:00:00
PU1XMG-162026-09-03 11:47:03-22.80796-43.2062663°78km/h4823m7.8m/s-3.2°C11.9%568.9hPa0V00:00:0000:00:0000:00:00
PU1XMG-162026-09-03 11:46:57-22.80856-43.2074964°82km/h4790m5.2m/s-3.0°C12.3%571.3hPa0V00:00:0000:00:0000:00:00
PU1XMG-162026-09-03 11:46:48-22.80952-43.2090658°62km/h4731m6.7m/s-2.8°C12.2%575.3hPa0V00:00:0000:00:0000:00:00
PU1XMG-162026-09-03 11:46:43-22.80985-43.2097677°64km/h4704m4.1m/s-2.7°C12.3%577.4hPa0V00:00:0000:00:0000:00:00
PU1XMG-162026-09-03 11:46:38-22.81025-43.2108963°68km/h4669m4.4m/s-2.5°C12.4%580.1hPa0V00:00:0000:00:0000:00:00
PU1XMG-162026-09-03 11:46:32-22.81066-43.2116365°68km/h4638m4.6m/s-2.4°C12.8%582.3hPa0V00:00:0000:00:0000:00:00
PU1XMG-162026-09-03 11:46:21-22.81134-43.2134680°44km/h4556m6.5m/s-1.8°C12.8%588.2hPa0V00:00:0000:00:0000:00:00
PU1XMG-162026-09-03 11:46:16-22.81167-43.2140554°62km/h4520m6.9m/s-1.5°C12.6%590.5hPa0V00:00:0000:00:0000:00:00
PU1XMG-162026-09-03 11:46:09-22.81209-43.2150679°42km/h4474m5.4m/s-1.7°C14.8%593.6hPa0V00:00:0000:00:0000:00:00
PU1XMG-162026-09-03 11:46:05-22.81221-43.2155877°58km/h4441m6.2m/s-1.5°C15.8%596.6hPa0V00:00:0000:00:0000:00:00
PU1XMG-162026-09-03 11:45:58-22.81224-43.2164192°47km/h4400m5.3m/s-1.3°C17.0%599.9hPa0V00:00:0000:00:0000:00:00
PU1XMG-162026-09-03 11:45:52-22.81240-43.2171687°53km/h4359m5.4m/s-1.0°C17.3%603.0hPa0V00:00:0000:00:0000:00:00
PU1XMG-162026-09-03 11:45:47-22.81247-43.2179881°64km/h4327m9.3m/s-0.9°C18.1%605.4hPa0V00:00:0000:00:0000:00:00
PU1XMG-162026-09-03 11:45:42-22.81275-43.2187969°55km/h4282m6.6m/s-0.6°C18.7%608.9hPa0V00:00:0000:00:0000:00:00
PU1XMG-162026-09-03 11:45:36-22.81287-43.2195281°49km/h4249m5.2m/s-0.3°C18.5%611.5hPa0V00:00:0000:00:0000:00:00
PU1XMG-162026-09-03 11:45:31-22.81297-43.2202187°49km/h4217m4.2m/s-0.0°C18.1%613.9hPa0V00:00:0000:00:0000:00:00
PU1XMG-162026-09-03 11:45:24-22.81321-43.2210676°40km/h4178m7.5m/s0.3°C17.8%616.6hPa0V00:00:0000:00:0000:00:00
PU1XMG-162026-09-03 11:45:19-22.81327-43.2217181°53km/h4144m6.9m/s0.6°C17.3%619.1hPa0V00:00:0000:00:0000:00:00
PU1XMG-162026-09-03 11:45:15-22.81344-43.2224570°49km/h4114m6.2m/s0.9°C17.1%621.5hPa0V00:00:0000:00:0000:00:00
PU1XMG-162026-09-03 11:45:03-22.81369-43.2237266°60km/h4053m6.9m/s1.5°C15.9%626.6hPa0V00:00:0000:00:0000:00:00
PU1XMG-162026-09-03 11:44:58-22.81405-43.2246171°44km/h4016m8.2m/s1.9°C15.4%629.4hPa0V00:00:0000:00:0000:00:00
PU1XMG-162026-09-03 11:44:52-22.81432-43.2252266°49km/h3984m6.4m/s2.2°C15.3%631.9hPa0V00:00:0000:00:0000:00:00
PU1XMG-162026-09-03 11:44:46-22.81462-43.2260970°55km/h3942m8.8m/s2.6°C14.5%635.0hPa0V00:00:0000:00:0000:00:00
PU1XMG-162026-09-03 11:44:39-22.81495-43.2271673°64km/h3893m4.2m/s3.0°C12.2%638.6hPa0V00:00:0000:00:0000:00:00
PU1XMG-162026-09-03 11:44:34-22.81526-43.2278653°58km/h3864m6.1m/s3.3°C10.7%640.6hPa0V00:00:0000:00:0000:00:00
PU1XMG-162026-09-03 11:44:29-22.81554-43.2284277°46km/h3830m7.8m/s3.6°C7.3%643.9hPa0V00:00:0000:00:0000:00:00
PU1XMG-162026-09-03 11:44:23-22.81577-43.2293077°55km/h3794m8.5m/s3.9°C6.6%646.7hPa0V00:00:0000:00:0000:00:00
PU1XMG-162026-09-03 11:44:17-22.81607-43.2302066°64km/h3759m8.4m/s4.2°C5.1%649.5hPa0V00:00:0000:00:0000:00:00
PU1XMG-162026-09-03 11:44:11-22.81626-43.2310281°46km/h3718m6.3m/s4.5°C3.0%652.8hPa0V00:00:0000:00:0000:00:00
PU1XMG-162026-09-03 11:44:04-22.81644-43.2317771°42km/h3678m6.4m/s4.7°C1.9%655.9hPa0V00:00:0000:00:0000:00:00
PU1XMG-162026-09-03 11:43:59-22.81676-43.2323157°29km/h3641m4.6m/s4.9°C1.7%658.6hPa0V00:00:0000:00:0000:00:00
PU1XMG-162026-09-03 11:43:55-22.81697-43.2327964°51km/h3602m9.4m/s5.1°C1.3%661.4hPa0V00:00:0000:00:0000:00:00
PU1XMG-162026-09-03 11:43:49-22.81738-43.2334148°53km/h3570m4.5m/s5.4°C1.3%664.7hPa0V00:00:0000:00:0000:00:00
PU1XMG-162026-09-03 11:43:44-22.81782-43.2338948°49km/h3543m4.7m/s5.5°C1.2%666.8hPa0V00:00:0000:00:0000:00:00
PU1XMG-162026-09-03 11:43:38-22.81827-43.2344250°47km/h3513m4.5m/s5.5°C1.9%669.5hPa0V00:00:0000:00:0000:00:00
PU1XMG-162026-09-03 11:43:31-22.81859-43.2350780°35km/h3479m5.3m/s5.1°C1.6%672.2hPa0V00:00:0000:00:0000:00:00
PU1XMG-162026-09-03 11:43:26-22.81865-43.2355685°37km/h3457m8.1m/s5.1°C1.7%674.1hPa0V00:00:0000:00:0000:00:00
PU1XMG-162026-09-03 11:43:21-22.81873-43.2361780°51km/h3430m6.1m/s5.2°C2.7%676.5hPa0V00:00:0000:00:0000:00:00
PU1XMG-162026-09-03 11:43:16-22.81889-43.2366853°35km/h3402m5.6m/s5.4°C3.5%678.7hPa0V00:00:0000:00:0000:00:00
PU1XMG-162026-09-03 11:43:11-22.81916-43.2372074°49km/h3370m7.7m/s5.5°C3.6%681.2hPa0V00:00:0000:00:0000:00:00
PU1XMG-162026-09-03 11:43:06-22.81949-43.2379067°40km/h3328m8.1m/s5.6°C2.2%684.6hPa0V00:00:0000:00:0000:00:00
PU1XMG-162026-09-03 11:43:01-22.81966-43.2384563°40km/h3301m6.6m/s5.8°C2.5%687.2hPa0V00:00:0000:00:0000:00:00
PU1XMG-162026-09-03 11:42:54-22.82009-43.2392766°47km/h3262m9.1m/s5.9°C3.1%689.7hPa0V00:00:0000:00:0000:00:00
PU1XMG-162026-09-03 11:42:48-22.82041-43.2397659°51km/h3225m4.7m/s6.0°C4.4%693.3hPa0V00:00:0000:00:0000:00:00
PU1XMG-162026-09-03 11:42:43-22.82063-43.2403968°35km/h3191m7.0m/s6.3°C3.0%696.1hPa0V00:00:0000:00:0000:00:00
PU1XMG-162026-09-03 11:42:36-22.82095-43.2409450°29km/h3155m6.0m/s6.6°C2.4%699.2hPa0V00:00:0000:00:0000:00:00
PU1XMG-162026-09-03 11:42:32-22.82123-43.2412646°29km/h3127m6.8m/s6.8°C2.4%701.5hPa0V00:00:0000:00:0000:00:00
PU1XMG-162026-09-03 11:42:27-22.82148-43.2415347°27km/h3096m6.2m/s7.0°C2.4%704.6hPa0V00:00:0000:00:0000:00:00
PU1XMG-162026-09-03 11:42:22-22.82158-43.2417987°22km/h3064m5.9m/s7.2°C2.3%707.1hPa0V00:00:0000:00:0000:00:00
PU1XMG-162026-09-03 11:42:16-22.82167-43.2422468°40km/h3037m6.1m/s7.4°C2.7%709.5hPa0V00:00:0000:00:0000:00:00
PU1XMG-162026-09-03 11:42:10-22.82197-43.2427557°37km/h3004m8.4m/s7.7°C2.6%712.5hPa0V00:00:0000:00:0000:00:00
PU1XMG-162026-09-03 11:42:06-22.82220-43.2432780°46km/h2977m4.9m/s8.0°C2.8%715.0hPa0V00:00:0000:00:0000:00:00
PU1XMG-162026-09-03 11:42:00-22.82240-43.2439660°35km/h2936m5.5m/s8.2°C3.0%717.8hPa0V00:00:0000:00:0000:00:00
PU1XMG-162026-09-03 11:41:55-22.82250-43.2444186°40km/h2912m5.0m/s8.4°C3.1%719.9hPa0V00:00:0000:00:0000:00:00
PU1XMG-162026-09-03 11:41:49-22.82257-43.2448698°24km/h2881m6.1m/s8.7°C3.2%723.2hPa0V00:00:0000:00:0000:00:00
PU1XMG-162026-09-03 11:41:44-22.82249-43.2452894°42km/h2852m5.8m/s8.9°C3.2%725.4hPa0V00:00:0000:00:0000:00:00
PU1XMG-162026-09-03 11:41:39-22.82259-43.2457772°24km/h2823m6.7m/s9.2°C3.4%727.9hPa0V00:00:0000:00:0000:00:00
PU1XMG-162026-09-03 11:41:33-22.82267-43.2461467°29km/h2790m4.6m/s9.3°C3.4%731.1hPa0V00:00:0000:00:0000:00:00
PU1XMG-162026-09-03 11:41:26-22.82273-43.24656101°35km/h2759m6.1m/s9.5°C3.4%733.9hPa0V00:00:0000:00:0000:00:00
PU1XMG-162026-09-03 11:41:21-22.82270-43.2471293°38km/h2729m6.0m/s9.7°C3.4%736.4hPa0V00:00:0000:00:0000:00:00
PU1XMG-162026-09-03 11:41:17-22.82268-43.2476079°37km/h2691m7.7m/s9.8°C3.4%739.8hPa0V00:00:0000:00:0000:00:00
PU1XMG-162026-09-03 11:41:10-22.82275-43.24823101°40km/h2659m5.9m/s9.9°C3.3%742.6hPa0V00:00:0000:00:0000:00:00
PU1XMG-162026-09-03 11:41:05-22.82272-43.2486977°26km/h2636m5.5m/s9.9°C3.1%744.9hPa0V00:00:0000:00:0000:00:00
PU1XMG-162026-09-03 11:41:01-22.82277-43.24907102°29km/h2607m6.5m/s9.9°C3.7%747.6hPa0V00:00:0000:00:0000:00:00
PU1XMG-162026-09-03 11:40:55-22.82275-43.2494497°31km/h2574m8.8m/s9.6°C11.5%750.3hPa0V00:00:0000:00:0000:00:00
PU1XMG-162026-09-03 11:40:49-22.82256-43.2498978°22km/h2531m5.5m/s9.5°C15.6%753.5hPa0V00:00:0000:00:0000:00:00
PU1XMG-162026-09-03 11:40:45-22.82258-43.25013113°26km/h2507m6.1m/s9.6°C16.8%756.2hPa0V00:00:0000:00:0000:00:00
PU1XMG-162026-09-03 11:40:40-22.82247-43.2506082°29km/h2473m4.3m/s9.1°C31.6%759.1hPa0V00:00:0000:00:0000:00:00
PU1XMG-162026-09-03 11:40:35-22.82247-43.25093110°31km/h2450m5.3m/s9.0°C43.5%761.7hPa0V00:00:0000:00:0000:00:00
PU1XMG-162026-09-03 11:40:28-22.82232-43.2513492°31km/h2414m6.1m/s9.0°C51.0%764.9hPa0V00:00:0000:00:0000:00:00
PU1XMG-162026-09-03 11:40:22-22.82227-43.25188111°24km/h2380m7.8m/s9.0°C61.3%768.0hPa0V00:00:0000:00:0000:00:00
PU1XMG-162026-09-03 11:40:18-22.82204-43.25227121°42km/h2345m5.6m/s9.3°C62.6%771.3hPa0V00:00:0000:00:0000:00:00
PU1XMG-162026-09-03 11:40:12-22.82186-43.25284121°35km/h2312m8.4m/s9.5°C61.6%774.3hPa0V00:00:0000:00:0000:00:00
PU1XMG-162026-09-03 11:40:06-22.82167-43.2533895°42km/h2282m5.8m/s9.7°C61.0%777.0hPa0V00:00:0000:00:0000:00:00
PU1XMG-162026-09-03 11:40:01-22.82158-43.25406111°46km/h2248m9.5m/s10.0°C59.4%780.3hPa0V00:00:0000:00:0000:00:00
PU1XMG-162026-09-03 11:39:56-22.82131-43.25456125°38km/h2216m5.0m/s10.2°C58.2%783.3hPa0V00:00:0000:00:0000:00:00
PU1XMG-162026-09-03 11:39:49-22.82108-43.25493117°33km/h2175m7.4m/s10.4°C57.5%787.2hPa0V00:00:0000:00:0000:00:00
PU1XMG-162026-09-03 11:39:43-22.82092-43.25543121°22km/h2138m8.0m/s10.6°C57.5%790.7hPa0V00:00:0000:00:0000:00:00
PU1XMG-162026-09-03 11:39:38-22.82066-43.25572125°35km/h2111m5.4m/s10.6°C58.5%793.3hPa0V00:00:0000:00:0000:00:00
PU1XMG-162026-09-03 11:39:33-22.82055-43.2561976°16km/h2079m6.1m/s10.7°C59.4%796.3hPa0V00:00:0000:00:0000:00:00
PU1XMG-162026-09-03 11:39:27-22.82056-43.25629134°7km/h2056m4.8m/s10.7°C60.6%798.5hPa0V00:00:0000:00:0000:00:00
PU1XMG-162026-09-03 11:39:21-22.82035-43.25657118°33km/h2022m5.7m/s10.3°C66.8%801.7hPa0V00:00:0000:00:0000:00:00
PU1XMG-162026-09-03 11:39:16-22.82016-43.25699132°27km/h1988m8.1m/s10.0°C73.2%805.2hPa0V00:00:0000:00:0000:00:00
PU1XMG-162026-09-03 11:39:10-22.81996-43.25707146°13km/h1957m4.8m/s9.7°C77.9%808.1hPa0V00:00:0000:00:0000:00:00
PU1XMG-162026-09-03 11:39:05-22.81974-43.25725162°27km/h1929m4.8m/s9.8°C78.5%810.8hPa0V00:00:0000:00:0000:00:00
PU1XMG-162026-09-03 11:39:00-22.81954-43.25730131°13km/h1903m4.6m/s9.8°C79.0%813.3hPa0V00:00:0000:00:0000:00:00
PU1XMG-162026-09-03 11:38:55-22.81933-43.25748154°29km/h1876m6.4m/s9.8°C80.8%816.0hPa0V00:00:0000:00:0000:00:00
PU1XMG-162026-09-03 11:38:49-22.81902-43.25769187°18km/h1836m4.1m/s10.0°C81.1%819.7hPa0V00:00:0000:00:0000:00:00
PU1XMG-162026-09-03 11:38:45-22.81874-43.25780145°26km/h1805m6.1m/s10.1°C80.1%822.4hPa0V00:00:0000:00:0000:00:00
PU1XMG-162026-09-03 11:38:39-22.81849-43.25787188°20km/h1782m4.4m/s10.4°C79.5%825.1hPa0V00:00:0000:00:0000:00:00
PU1XMG-162026-09-03 11:38:34-22.81834-43.25787129°11km/h1752m4.5m/s10.5°C78.7%827.7hPa0V00:00:0000:00:0000:00:00
PU1XMG-162026-09-03 11:38:29-22.81817-43.25790184°18km/h1724m4.5m/s10.7°C78.9%830.9hPa0V00:00:0000:00:0000:00:00
PU1XMG-162026-09-03 11:38:22-22.81791-43.25806140°18km/h1693m5.5m/s10.8°C79.7%834.2hPa0V00:00:0000:00:0000:00:00
PU1XMG-162026-09-03 11:38:17-22.81775-43.25817177°7km/h1668m4.7m/s10.9°C80.0%836.6hPa0V00:00:0000:00:0000:00:00
PU1XMG-162026-09-03 11:38:12-22.81749-43.25808177°24km/h1635m5.7m/s10.5°C86.4%839.8hPa0V00:00:0000:00:0000:00:00
PU1XMG-162026-09-03 11:38:07-22.81718-43.25814177°33km/h1607m6.4m/s10.6°C86.6%842.9hPa0V00:00:0000:00:0000:00:00
PU1XMG-162026-09-03 11:38:00-22.81669-43.25815183°22km/h1577m4.9m/s10.6°C88.0%845.7hPa0V00:00:0000:00:0000:00:00
PU1XMG-162026-09-03 11:37:50-22.81592-43.25806210°33km/h1509m3.6m/s10.8°C88.3%852.1hPa0V00:00:0000:00:0000:00:00
PU1XMG-162026-09-03 11:37:45-22.81561-43.25794172°24km/h1482m5.5m/s11.0°C87.4%854.9hPa0V00:00:0000:00:0000:00:00
PU1XMG-162026-09-03 11:37:38-22.81518-43.25790205°35km/h1456m6.2m/s11.3°C86.2%858.0hPa0V00:00:0000:00:0000:00:00
PU1XMG-162026-09-03 11:37:33-22.81491-43.25778188°20km/h1428m4.8m/s11.5°C85.3%860.9hPa0V00:00:0000:00:0000:00:00
PU1XMG-162026-09-03 11:37:27-22.81454-43.25757221°31km/h1392m8.7m/s11.8°C83.5%864.5hPa0V00:00:0000:00:0000:00:00
PU1XMG-162026-09-03 11:37:22-22.81419-43.25742179°22km/h1350m3.7m/s12.2°C81.9%869.1hPa0V00:00:0000:00:0000:00:00
PU1XMG-162026-09-03 11:37:17-22.81390-43.25736196°16km/h1320m5.7m/s12.4°C80.6%872.2hPa0V00:00:0000:00:0000:00:00
PU1XMG-162026-09-03 11:37:11-22.81370-43.25740191°20km/h1291m5.8m/s12.6°C79.9%875.3hPa0V00:00:0000:00:0000:00:00
PU1XMG-162026-09-03 11:37:05-22.81332-43.25723192°31km/h1259m8.0m/s12.7°C79.4%878.3hPa0V00:00:0000:00:0000:00:00
PU1XMG-162026-09-03 11:36:55-22.81274-43.25721166°15km/h1190m7.9m/s13.0°C76.8%885.6hPa0V00:00:0000:00:0000:00:00
PU1XMG-162026-09-03 11:36:48-22.81258-43.25708209°20km/h1156m4.6m/s13.3°C75.9%889.1hPa0V00:00:0000:00:0000:00:00
PU1XMG-162026-09-03 11:36:44-22.81245-43.25701258°11km/h1129m6.5m/s13.5°C75.4%892.0hPa0V00:00:0000:00:0000:00:00
PU1XMG-162026-09-03 11:36:38-22.81237-43.25673257°16km/h1095m5.4m/s13.8°C74.4%895.4hPa0V00:00:0000:00:0000:00:00
PU1XMG-162026-09-03 11:36:32-22.81217-43.25655190°18km/h1068m6.3m/s14.0°C72.9%898.3hPa0V00:00:0000:00:0000:00:00
PU1XMG-162026-09-03 11:36:27-22.81207-43.25653273°13km/h1039m5.0m/s14.3°C72.7%901.6hPa0V00:00:0000:00:0000:00:00
PU1XMG-162026-09-03 11:36:21-22.81206-43.25629264°13km/h1010m4.1m/s14.5°C71.5%904.7hPa0V00:00:0000:00:0000:00:00
PU1XMG-162026-09-03 11:36:15-22.81199-43.25616209°18km/h978m5.6m/s14.7°C68.5%908.1hPa0V00:00:0000:00:0000:00:00
PU1XMG-162026-09-03 11:36:09-22.81171-43.25605240°22km/h935m4.6m/s15.0°C66.9%912.0hPa0V00:00:0000:00:0000:00:00
PU1XMG-162026-09-03 11:36:05-22.81160-43.25579225°16km/h906m7.9m/s15.2°C67.8%915.2hPa0V00:00:0000:00:0000:00:00
PU1XMG-162026-09-03 11:35:58-22.81141-43.25567239°15km/h878m5.3m/s15.3°C67.3%918.8hPa0V00:00:0000:00:0000:00:00
PU1XMG-162026-09-03 11:35:52-22.81133-43.25549210°16km/h844m5.4m/s15.4°C0%922.6hPa0V00:00:0000:00:0000:00:00
PU1XMG-162026-09-03 11:35:46-22.81110-43.25518259°22km/h811m5.3m/s15.6°C0%926.1hPa0V00:00:0000:00:0000:00:00
PU1XMG-162026-09-03 11:35:40-22.81103-43.25508194°13km/h781m5.7m/s0°C0%929.4hPa0V00:00:0000:00:0000:00:00
PU1XMG-162026-09-03 11:35:34-22.81095-43.25487250°24km/h747m4.3m/s0°C0%933.1hPa0V00:00:0000:00:0000:00:00
PU1XMG-162026-09-03 11:35:30-22.81080-43.25471186°9km/h717m5.5m/s0°C0%0hPa0V00:00:0000:00:0000:00:00
PU1XMG-162026-09-03 11:35:24-22.81065-43.25456214°20km/h684m4.7m/s0°C0%0hPa0V00:00:0000:00:0000:00:00
PU1XMG-162026-09-03 11:35:18-22.81055-43.25443267°16km/h656m6.2m/s0°C0%0hPa0V00:00:0000:00:0000:00:00
PU1XMG-162026-09-03 11:35:13-22.81048-43.25410248°15km/h622m5.0m/s0°C0%0hPa0V00:00:0000:00:0000:00:00
PU1XMG-162026-09-03 11:34:13-22.80962-43.25136252°24km/h277m6.0m/s0°C0%0hPa0V00:00:0000:00:0000:00:00


GPX KML Map

© wettersonde.net (DO2JMG) - 2026  -  -